createdAt,value
2023-07-23T00:04:12.209Z,7.50
2023-07-23T00:10:30.700Z,9.50
2023-07-23T00:16:49.437Z,8.80
2023-07-23T00:23:08.212Z,7.00
2023-07-23T00:29:26.990Z,8.10
2023-07-23T00:35:46.003Z,8.70
2023-07-23T00:42:04.628Z,8.70
2023-07-23T00:48:23.358Z,8.40
2023-07-23T00:54:42.173Z,10.10
2023-07-23T01:01:00.950Z,8.20
2023-07-23T01:07:19.516Z,6.90
2023-07-23T01:13:37.626Z,6.50
2023-07-23T01:19:56.319Z,8.30
2023-07-23T01:26:15.110Z,8.40
2023-07-23T01:32:33.889Z,6.30
2023-07-23T01:38:52.643Z,6.90
2023-07-23T01:45:11.162Z,9.50
2023-07-23T01:51:30.205Z,12.20
2023-07-23T01:57:49.239Z,8.00
2023-07-23T02:04:07.940Z,9.50
2023-07-23T02:10:26.414Z,8.00
2023-07-23T02:16:44.927Z,8.90
2023-07-23T02:23:03.523Z,9.30
2023-07-23T02:29:22.477Z,8.60
2023-07-23T02:35:40.966Z,9.10
2023-07-23T02:41:59.872Z,8.10
2023-07-23T02:48:18.363Z,9.00
2023-07-23T02:54:36.814Z,8.60
2023-07-23T03:00:55.097Z,8.20
2023-07-23T03:07:13.553Z,9.90
2023-07-23T03:13:32.623Z,11.70
2023-07-23T03:19:51.526Z,9.60
2023-07-23T03:26:10.378Z,11.00
2023-07-23T03:32:29.538Z,8.00
2023-07-23T03:38:48.411Z,7.80
2023-07-23T03:45:07.261Z,8.80
2023-07-23T03:51:25.634Z,7.90
2023-07-23T03:57:44.280Z,7.30
2023-07-23T04:04:02.915Z,7.40
2023-07-23T04:10:21.720Z,8.00
2023-07-23T04:16:40.247Z,8.20
2023-07-23T04:22:58.377Z,7.70
2023-07-23T04:29:17.265Z,8.80
2023-07-23T04:35:35.940Z,8.60
2023-07-23T04:41:54.776Z,9.50
2023-07-23T04:48:13.467Z,7.90
2023-07-23T04:54:32.422Z,10.90
2023-07-23T05:00:51.072Z,6.80
2023-07-23T05:07:09.766Z,7.40
2023-07-23T05:13:28.460Z,6.20
2023-07-23T05:19:47.736Z,7.70
2023-07-23T05:26:06.318Z,6.10
2023-07-23T05:32:24.874Z,6.30
2023-07-23T05:38:43.319Z,5.90
2023-07-23T05:45:02.456Z,7.60
2023-07-23T05:51:20.835Z,7.30
2023-07-23T05:57:39.134Z,6.00
2023-07-23T06:03:57.832Z,6.00
2023-07-23T06:10:16.575Z,6.10
2023-07-23T06:16:35.960Z,6.70
2023-07-23T06:22:55.254Z,7.00
2023-07-23T06:29:13.657Z,5.00
2023-07-23T06:35:32.294Z,8.00
2023-07-23T06:41:50.796Z,6.50
2023-07-23T06:48:09.424Z,4.90
2023-07-23T06:54:28.042Z,4.90
2023-07-23T07:00:46.460Z,5.10
2023-07-23T07:07:05.339Z,4.10
2023-07-23T07:13:24.023Z,7.20
2023-07-23T07:19:42.946Z,5.90
2023-07-23T07:26:01.539Z,4.70
2023-07-23T07:32:20.666Z,4.80
2023-07-23T07:38:39.676Z,6.90
2023-07-23T07:44:58.682Z,4.80
2023-07-23T07:51:16.996Z,7.30
2023-07-23T07:57:36.167Z,5.20
2023-07-23T08:03:54.738Z,3.80
2023-07-23T08:10:13.672Z,6.70
2023-07-23T08:16:32.322Z,6.30
2023-07-23T08:22:50.486Z,4.00
2023-07-23T08:29:10.182Z,5.40
2023-07-23T08:35:29.005Z,4.20
2023-07-23T08:41:47.540Z,5.30
2023-07-23T08:48:05.775Z,3.90
2023-07-23T08:54:24.283Z,5.10
2023-07-23T09:00:42.708Z,4.20
2023-07-23T09:07:01.368Z,4.40
2023-07-23T09:13:19.684Z,5.30
2023-07-23T09:19:38.473Z,6.10
2023-07-23T09:25:56.877Z,5.10
2023-07-23T09:32:15.523Z,7.10
2023-07-23T09:38:34.200Z,4.80
2023-07-23T09:44:53.082Z,5.00
2023-07-23T09:51:11.707Z,6.20
2023-07-23T09:57:29.881Z,5.10
2023-07-23T10:03:48.368Z,6.10
2023-07-23T10:10:17.110Z,5.50
2023-07-23T10:16:35.635Z,5.70
2023-07-23T10:22:54.379Z,7.80
2023-07-23T10:29:13.159Z,4.50
2023-07-23T10:35:31.617Z,5.50
2023-07-23T10:41:49.935Z,4.60
2023-07-23T10:48:08.410Z,8.30
2023-07-23T10:54:27.105Z,4.60
2023-07-23T11:00:45.734Z,6.30
2023-07-23T11:07:04.408Z,4.10
2023-07-23T11:13:22.716Z,4.50
2023-07-23T11:19:41.232Z,4.20
2023-07-23T11:25:59.878Z,6.40
2023-07-23T11:32:18.939Z,4.00
2023-07-23T11:38:37.850Z,5.20
2023-07-23T11:44:56.547Z,4.60
2023-07-23T11:51:28.041Z,4.90
2023-07-23T11:57:46.667Z,5.00
2023-07-23T12:04:05.560Z,6.20
2023-07-23T12:10:24.037Z,5.40
2023-07-23T12:16:42.535Z,6.60
2023-07-23T12:23:01.880Z,5.60
2023-07-23T12:29:20.604Z,4.10
2023-07-23T12:35:38.821Z,7.20
2023-07-23T12:41:57.327Z,5.90
2023-07-23T12:48:15.697Z,7.10
2023-07-23T12:54:34.099Z,10.60
2023-07-23T13:00:52.259Z,5.20
2023-07-23T13:07:11.623Z,6.90
2023-07-23T13:13:30.633Z,9.00
2023-07-23T13:19:49.256Z,5.80
2023-07-23T13:26:07.808Z,6.50
2023-07-23T13:32:26.923Z,5.40
2023-07-23T13:38:45.715Z,4.90
2023-07-23T13:45:04.318Z,7.60
2023-07-23T13:51:23.048Z,8.40
2023-07-23T13:57:41.329Z,4.60
2023-07-23T14:03:59.792Z,6.80
2023-07-23T14:10:18.625Z,4.60
2023-07-23T14:16:37.088Z,5.00
2023-07-23T14:22:55.679Z,10.00
2023-07-23T14:29:14.444Z,7.00
2023-07-23T14:35:33.155Z,6.00
2023-07-23T14:41:51.795Z,5.40
2023-07-23T14:48:10.121Z,4.40
2023-07-23T14:54:29.027Z,7.10
2023-07-23T15:00:47.525Z,5.50
2023-07-23T15:07:06.094Z,11.60
2023-07-23T15:13:25.020Z,5.30
2023-07-23T15:19:43.404Z,6.40
2023-07-23T15:26:02.081Z,5.20
2023-07-23T15:32:20.966Z,5.80
2023-07-23T15:38:39.659Z,4.30
2023-07-23T15:44:58.402Z,8.70
2023-07-23T15:51:17.252Z,6.00
2023-07-23T15:57:35.922Z,6.60
2023-07-23T16:03:54.468Z,6.70
2023-07-23T16:10:13.017Z,6.30
2023-07-23T16:16:31.965Z,5.70
2023-07-23T16:22:50.817Z,7.50
2023-07-23T16:29:11.680Z,7.70
2023-07-23T16:35:31.842Z,3.80
2023-07-23T16:41:50.374Z,6.00
2023-07-23T16:48:09.136Z,4.70
2023-07-23T16:54:28.095Z,6.00
2023-07-23T17:00:46.858Z,3.60
2023-07-23T17:07:05.033Z,4.40
2023-07-23T17:13:23.386Z,5.10
2023-07-23T17:19:42.595Z,5.30
2023-07-23T17:26:00.810Z,5.70
2023-07-23T17:32:19.886Z,5.70
2023-07-23T17:38:38.203Z,7.20
2023-07-23T17:44:56.829Z,7.80
2023-07-23T17:51:15.952Z,9.70
2023-07-23T17:57:34.951Z,8.70
2023-07-23T18:03:53.479Z,9.30
2023-07-23T18:10:12.326Z,8.10
2023-07-23T18:16:30.890Z,8.40
2023-07-23T18:22:49.733Z,7.90
2023-07-23T18:29:08.323Z,6.50
2023-07-23T18:35:26.888Z,6.90
2023-07-23T18:41:45.549Z,6.70
2023-07-23T18:48:04.221Z,9.40
2023-07-23T18:54:22.369Z,8.10
2023-07-23T19:00:41.198Z,6.20
2023-07-23T19:07:00.239Z,8.20
2023-07-23T19:13:18.688Z,10.50
2023-07-23T19:19:37.444Z,9.30
2023-07-23T19:25:56.708Z,8.90
2023-07-23T19:32:14.710Z,10.50
2023-07-23T19:38:32.942Z,12.00
2023-07-23T19:44:51.632Z,7.90
2023-07-23T19:51:10.258Z,6.70
2023-07-23T19:57:29.294Z,7.50
2023-07-23T20:03:47.915Z,8.30
2023-07-23T20:10:06.861Z,8.40
2023-07-23T20:16:25.421Z,12.70
2023-07-23T20:28:52.668Z,9.50
2023-07-23T20:35:10.957Z,10.30
2023-07-23T20:41:29.712Z,9.20
2023-07-23T20:47:48.199Z,10.90
2023-07-23T20:54:07.878Z,7.60
2023-07-23T21:00:26.466Z,8.10
2023-07-23T21:06:45.448Z,9.80
2023-07-23T21:13:03.892Z,11.90
2023-07-23T21:19:22.289Z,8.10
2023-07-23T21:25:40.796Z,10.40
2023-07-23T21:31:59.496Z,8.20
2023-07-23T21:38:18.398Z,7.50
2023-07-23T21:44:37.137Z,8.70
2023-07-23T21:50:55.305Z,7.10
2023-07-23T21:57:14.111Z,9.50
2023-07-23T22:03:32.944Z,10.90
2023-07-23T22:09:51.974Z,8.00
2023-07-23T22:16:10.689Z,6.90
2023-07-23T22:22:29.207Z,9.20
2023-07-23T22:28:47.815Z,9.70
2023-07-23T22:35:06.093Z,12.10
2023-07-23T22:41:25.084Z,10.90
2023-07-23T22:47:44.059Z,14.40
2023-07-23T22:54:02.877Z,19.80
2023-07-23T23:00:21.692Z,10.90
2023-07-23T23:06:40.368Z,10.10
2023-07-23T23:12:59.017Z,10.00
2023-07-23T23:19:18.423Z,10.90
2023-07-23T23:25:37.386Z,9.90
2023-07-23T23:31:56.157Z,13.00
2023-07-23T23:38:15.017Z,12.20
2023-07-23T23:44:33.490Z,7.60
2023-07-23T23:50:51.915Z,11.20
2023-07-23T23:57:10.436Z,13.40
